sensor_id;sensor_type;location;lat;lon;timestamp;P1;durP1;ratioP1;P2;durP2;ratioP2
60203;SDS011;46068;52.132;4.618;2023-07-29T00:00:48;7.97;;;1.50;;
60203;SDS011;46068;52.132;4.618;2023-07-29T00:03:14;4.32;;;1.08;;
60203;SDS011;46068;52.132;4.618;2023-07-29T00:05:40;3.80;;;1.02;;
60203;SDS011;46068;52.132;4.618;2023-07-29T00:08:07;6.93;;;1.45;;
60203;SDS011;46068;52.132;4.618;2023-07-29T00:10:35;7.00;;;1.48;;
60203;SDS011;46068;52.132;4.618;2023-07-29T00:13:02;5.20;;;1.15;;
60203;SDS011;46068;52.132;4.618;2023-07-29T00:15:28;4.47;;;1.55;;
60203;SDS011;46068;52.132;4.618;2023-07-29T00:17:56;4.72;;;1.40;;
60203;SDS011;46068;52.132;4.618;2023-07-29T00:20:22;4.68;;;1.35;;
60203;SDS011;46068;52.132;4.618;2023-07-29T00:22:48;3.88;;;1.30;;
60203;SDS011;46068;52.132;4.618;2023-07-29T00:25:18;2.28;;;1.15;;
60203;SDS011;46068;52.132;4.618;2023-07-29T00:27:44;5.47;;;1.45;;
60203;SDS011;46068;52.132;4.618;2023-07-29T00:30:10;4.45;;;1.33;;
60203;SDS011;46068;52.132;4.618;2023-07-29T00:32:37;2.25;;;1.15;;
60203;SDS011;46068;52.132;4.618;2023-07-29T00:35:05;5.95;;;1.63;;
60203;SDS011;46068;52.132;4.618;2023-07-29T00:37:32;5.35;;;1.42;;
60203;SDS011;46068;52.132;4.618;2023-07-29T00:39:58;4.97;;;1.55;;
60203;SDS011;46068;52.132;4.618;2023-07-29T00:42:24;4.60;;;1.20;;
60203;SDS011;46068;52.132;4.618;2023-07-29T00:44:51;3.40;;;1.40;;
60203;SDS011;46068;52.132;4.618;2023-07-29T00:47:17;3.80;;;1.25;;
60203;SDS011;46068;52.132;4.618;2023-07-29T00:49:43;3.60;;;1.30;;
60203;SDS011;46068;52.132;4.618;2023-07-29T00:52:11;3.80;;;1.30;;
60203;SDS011;46068;52.132;4.618;2023-07-29T00:54:37;3.83;;;1.33;;
60203;SDS011;46068;52.132;4.618;2023-07-29T00:57:04;3.05;;;1.23;;
60203;SDS011;46068;52.132;4.618;2023-07-29T00:59:31;1.48;;;0.88;;
60203;SDS011;46068;52.132;4.618;2023-07-29T01:01:57;4.95;;;1.52;;
60203;SDS011;46068;52.132;4.618;2023-07-29T01:04:23;3.65;;;1.15;;
60203;SDS011;46068;52.132;4.618;2023-07-29T01:06:50;2.95;;;1.50;;
60203;SDS011;46068;52.132;4.618;2023-07-29T01:09:23;5.10;;;1.50;;
60203;SDS011;46068;52.132;4.618;2023-07-29T01:11:52;3.13;;;1.35;;
60203;SDS011;46068;52.132;4.618;2023-07-29T01:14:21;2.53;;;1.17;;
60203;SDS011;46068;52.132;4.618;2023-07-29T01:16:52;7.30;;;1.50;;
60203;SDS011;46068;52.132;4.618;2023-07-29T01:19:20;7.18;;;1.45;;
60203;SDS011;46068;52.132;4.618;2023-07-29T01:21:52;3.95;;;1.40;;
60203;SDS011;46068;52.132;4.618;2023-07-29T01:24:21;4.35;;;1.70;;
60203;SDS011;46068;52.132;4.618;2023-07-29T01:26:47;2.65;;;1.33;;
60203;SDS011;46068;52.132;4.618;2023-07-29T01:29:14;11.32;;;2.13;;
60203;SDS011;46068;52.132;4.618;2023-07-29T01:31:41;4.38;;;1.67;;
60203;SDS011;46068;52.132;4.618;2023-07-29T01:34:09;6.93;;;2.08;;
60203;SDS011;46068;52.132;4.618;2023-07-29T01:36:39;4.13;;;1.83;;
60203;SDS011;46068;52.132;4.618;2023-07-29T01:39:07;3.55;;;1.80;;
60203;SDS011;46068;52.132;4.618;2023-07-29T01:41:37;4.03;;;1.70;;
60203;SDS011;46068;52.132;4.618;2023-07-29T01:44:05;4.97;;;2.08;;
60203;SDS011;46068;52.132;4.618;2023-07-29T01:46:33;4.00;;;1.60;;
60203;SDS011;46068;52.132;4.618;2023-07-29T01:48:59;4.88;;;1.98;;
60203;SDS011;46068;52.132;4.618;2023-07-29T01:51:25;6.75;;;1.52;;
60203;SDS011;46068;52.132;4.618;2023-07-29T01:53:52;5.75;;;1.70;;
60203;SDS011;46068;52.132;4.618;2023-07-29T01:56:18;7.15;;;1.95;;
60203;SDS011;46068;52.132;4.618;2023-07-29T01:58:46;6.30;;;2.00;;
60203;SDS011;46068;52.132;4.618;2023-07-29T02:01:12;7.53;;;1.98;;
60203;SDS011;46068;52.132;4.618;2023-07-29T02:03:38;9.30;;;2.08;;
60203;SDS011;46068;52.132;4.618;2023-07-29T02:06:05;7.93;;;2.25;;
60203;SDS011;46068;52.132;4.618;2023-07-29T02:08:31;7.55;;;2.20;;
60203;SDS011;46068;52.132;4.618;2023-07-29T02:10:57;4.10;;;1.73;;
60203;SDS011;46068;52.132;4.618;2023-07-29T02:13:24;3.95;;;1.85;;
60203;SDS011;46068;52.132;4.618;2023-07-29T02:15:51;7.60;;;1.83;;
60203;SDS011;46068;52.132;4.618;2023-07-29T02:18:18;2.63;;;1.77;;
60203;SDS011;46068;52.132;4.618;2023-07-29T02:20:44;3.05;;;1.73;;
60203;SDS011;46068;52.132;4.618;2023-07-29T02:23:14;8.10;;;1.80;;
60203;SDS011;46068;52.132;4.618;2023-07-29T02:25:40;6.68;;;2.40;;
60203;SDS011;46068;52.132;4.618;2023-07-29T02:28:06;5.32;;;1.75;;
60203;SDS011;46068;52.132;4.618;2023-07-29T02:30:33;5.00;;;1.85;;
60203;SDS011;46068;52.132;4.618;2023-07-29T02:33:00;7.13;;;2.20;;
60203;SDS011;46068;52.132;4.618;2023-07-29T02:35:27;4.60;;;2.22;;
60203;SDS011;46068;52.132;4.618;2023-07-29T02:37:53;8.18;;;1.90;;
60203;SDS011;46068;52.132;4.618;2023-07-29T02:40:19;5.38;;;2.03;;
60203;SDS011;46068;52.132;4.618;2023-07-29T02:42:47;5.18;;;2.30;;
60203;SDS011;46068;52.132;4.618;2023-07-29T02:45:14;6.15;;;1.98;;
60203;SDS011;46068;52.132;4.618;2023-07-29T02:47:40;6.75;;;2.22;;
60203;SDS011;46068;52.132;4.618;2023-07-29T02:50:08;5.30;;;1.80;;
60203;SDS011;46068;52.132;4.618;2023-07-29T02:52:35;6.82;;;2.20;;
60203;SDS011;46068;52.132;4.618;2023-07-29T02:55:01;4.30;;;1.92;;
60203;SDS011;46068;52.132;4.618;2023-07-29T02:57:27;7.70;;;2.38;;
60203;SDS011;46068;52.132;4.618;2023-07-29T02:59:53;5.90;;;2.40;;
60203;SDS011;46068;52.132;4.618;2023-07-29T03:02:20;8.68;;;2.25;;
60203;SDS011;46068;52.132;4.618;2023-07-29T03:04:47;8.18;;;2.60;;
60203;SDS011;46068;52.132;4.618;2023-07-29T03:07:15;6.25;;;2.22;;
60203;SDS011;46068;52.132;4.618;2023-07-29T03:09:41;8.07;;;2.22;;
60203;SDS011;46068;52.132;4.618;2023-07-29T03:12:09;5.63;;;2.65;;
60203;SDS011;46068;52.132;4.618;2023-07-29T03:14:35;6.13;;;2.28;;
60203;SDS011;46068;52.132;4.618;2023-07-29T03:17:02;6.55;;;2.30;;
60203;SDS011;46068;52.132;4.618;2023-07-29T03:19:29;4.97;;;2.28;;
60203;SDS011;46068;52.132;4.618;2023-07-29T03:21:55;8.13;;;2.30;;
60203;SDS011;46068;52.132;4.618;2023-07-29T03:24:23;7.45;;;2.28;;
60203;SDS011;46068;52.132;4.618;2023-07-29T03:26:49;6.07;;;2.50;;
60203;SDS011;46068;52.132;4.618;2023-07-29T03:29:15;4.35;;;2.17;;
60203;SDS011;46068;52.132;4.618;2023-07-29T03:31:41;3.83;;;1.80;;
60203;SDS011;46068;52.132;4.618;2023-07-29T03:34:08;9.35;;;2.42;;
60203;SDS011;46068;52.132;4.618;2023-07-29T03:36:36;8.50;;;2.42;;
60203;SDS011;46068;52.132;4.618;2023-07-29T03:39:02;5.68;;;2.30;;
60203;SDS011;46068;52.132;4.618;2023-07-29T03:41:30;5.72;;;2.33;;
60203;SDS011;46068;52.132;4.618;2023-07-29T03:43:56;8.13;;;2.25;;
60203;SDS011;46068;52.132;4.618;2023-07-29T03:46:22;7.00;;;2.17;;
60203;SDS011;46068;52.132;4.618;2023-07-29T03:48:49;3.70;;;2.17;;
60203;SDS011;46068;52.132;4.618;2023-07-29T03:51:15;6.32;;;2.25;;
60203;SDS011;46068;52.132;4.618;2023-07-29T03:53:41;7.60;;;2.00;;
60203;SDS011;46068;52.132;4.618;2023-07-29T03:56:08;7.00;;;2.33;;
60203;SDS011;46068;52.132;4.618;2023-07-29T03:58:35;4.15;;;2.33;;
60203;SDS011;46068;52.132;4.618;2023-07-29T04:01:02;8.48;;;2.40;;
60203;SDS011;46068;52.132;4.618;2023-07-29T04:03:29;7.90;;;2.15;;
60203;SDS011;46068;52.132;4.618;2023-07-29T04:05:56;9.02;;;2.75;;
60203;SDS011;46068;52.132;4.618;2023-07-29T04:08:22;8.80;;;3.00;;
60203;SDS011;46068;52.132;4.618;2023-07-29T04:10:48;5.47;;;2.40;;
60203;SDS011;46068;52.132;4.618;2023-07-29T04:13:15;5.78;;;2.67;;
60203;SDS011;46068;52.132;4.618;2023-07-29T04:15:42;7.35;;;2.60;;
60203;SDS011;46068;52.132;4.618;2023-07-29T04:18:09;10.38;;;3.25;;
60203;SDS011;46068;52.132;4.618;2023-07-29T04:20:35;8.45;;;2.80;;
60203;SDS011;46068;52.132;4.618;2023-07-29T04:23:01;9.48;;;2.92;;
60203;SDS011;46068;52.132;4.618;2023-07-29T04:25:28;10.15;;;3.15;;
60203;SDS011;46068;52.132;4.618;2023-07-29T04:27:54;9.02;;;3.38;;
60203;SDS011;46068;52.132;4.618;2023-07-29T04:30:22;8.98;;;2.80;;
60203;SDS011;46068;52.132;4.618;2023-07-29T04:32:50;5.88;;;2.67;;
60203;SDS011;46068;52.132;4.618;2023-07-29T04:35:16;12.05;;;4.05;;
60203;SDS011;46068;52.132;4.618;2023-07-29T04:37:42;11.70;;;3.50;;
60203;SDS011;46068;52.132;4.618;2023-07-29T04:40:09;7.85;;;3.35;;
60203;SDS011;46068;52.132;4.618;2023-07-29T04:42:36;7.80;;;3.30;;
60203;SDS011;46068;52.132;4.618;2023-07-29T04:45:02;8.18;;;3.60;;
60203;SDS011;46068;52.132;4.618;2023-07-29T04:47:30;11.68;;;3.90;;
60203;SDS011;46068;52.132;4.618;2023-07-29T04:49:58;9.32;;;3.63;;
60203;SDS011;46068;52.132;4.618;2023-07-29T04:52:24;7.35;;;3.40;;
60203;SDS011;46068;52.132;4.618;2023-07-29T04:54:50;8.32;;;3.72;;
60203;SDS011;46068;52.132;4.618;2023-07-29T04:57:16;8.40;;;3.63;;
60203;SDS011;46068;52.132;4.618;2023-07-29T04:59:43;11.80;;;4.05;;
60203;SDS011;46068;52.132;4.618;2023-07-29T05:02:09;11.40;;;4.18;;
60203;SDS011;46068;52.132;4.618;2023-07-29T05:04:36;12.32;;;3.50;;
60203;SDS011;46068;52.132;4.618;2023-07-29T05:07:04;12.60;;;4.00;;
60203;SDS011;46068;52.132;4.618;2023-07-29T05:09:30;10.55;;;4.35;;
60203;SDS011;46068;52.132;4.618;2023-07-29T05:11:56;8.93;;;4.25;;
60203;SDS011;46068;52.132;4.618;2023-07-29T05:14:23;9.60;;;3.50;;
60203;SDS011;46068;52.132;4.618;2023-07-29T05:16:49;9.93;;;3.83;;
60203;SDS011;46068;52.132;4.618;2023-07-29T05:19:15;11.85;;;4.28;;
60203;SDS011;46068;52.132;4.618;2023-07-29T05:21:41;11.13;;;3.85;;
60203;SDS011;46068;52.132;4.618;2023-07-29T05:24:09;9.43;;;4.07;;
60203;SDS011;46068;52.132;4.618;2023-07-29T05:26:35;11.05;;;4.25;;
60203;SDS011;46068;52.132;4.618;2023-07-29T05:29:01;10.93;;;3.60;;
60203;SDS011;46068;52.132;4.618;2023-07-29T05:31:29;10.98;;;3.97;;
60203;SDS011;46068;52.132;4.618;2023-07-29T05:33:55;11.13;;;3.83;;
60203;SDS011;46068;52.132;4.618;2023-07-29T05:36:21;7.50;;;2.95;;
60203;SDS011;46068;52.132;4.618;2023-07-29T05:38:47;9.48;;;3.40;;
60203;SDS011;46068;52.132;4.618;2023-07-29T05:41:15;10.00;;;3.25;;
60203;SDS011;46068;52.132;4.618;2023-07-29T05:43:41;8.13;;;3.35;;
60203;SDS011;46068;52.132;4.618;2023-07-29T05:46:08;8.60;;;3.22;;
60203;SDS011;46068;52.132;4.618;2023-07-29T05:48:34;7.57;;;4.10;;
60203;SDS011;46068;52.132;4.618;2023-07-29T05:51:01;7.97;;;3.15;;
60203;SDS011;46068;52.132;4.618;2023-07-29T05:53:27;7.07;;;3.25;;
60203;SDS011;46068;52.132;4.618;2023-07-29T05:55:53;12.32;;;3.58;;
60203;SDS011;46068;52.132;4.618;2023-07-29T05:58:21;8.38;;;3.38;;
60203;SDS011;46068;52.132;4.618;2023-07-29T06:00:47;9.43;;;3.67;;
60203;SDS011;46068;52.132;4.618;2023-07-29T06:03:13;9.60;;;3.60;;
60203;SDS011;46068;52.132;4.618;2023-07-29T06:05:40;10.05;;;3.58;;
60203;SDS011;46068;52.132;4.618;2023-07-29T06:08:06;7.28;;;3.20;;
60203;SDS011;46068;52.132;4.618;2023-07-29T06:10:33;7.97;;;3.78;;
60203;SDS011;46068;52.132;4.618;2023-07-29T06:12:59;10.38;;;3.45;;
60203;SDS011;46068;52.132;4.618;2023-07-29T06:15:27;7.95;;;3.60;;
60203;SDS011;46068;52.132;4.618;2023-07-29T06:17:54;9.05;;;3.47;;
60203;SDS011;46068;52.132;4.618;2023-07-29T06:20:20;7.72;;;3.47;;
60203;SDS011;46068;52.132;4.618;2023-07-29T06:22:46;9.75;;;3.47;;
60203;SDS011;46068;52.132;4.618;2023-07-29T06:25:13;6.78;;;3.00;;
60203;SDS011;46068;52.132;4.618;2023-07-29T06:27:39;15.32;;;3.70;;
60203;SDS011;46068;52.132;4.618;2023-07-29T06:30:06;10.45;;;3.13;;
60203;SDS011;46068;52.132;4.618;2023-07-29T06:32:34;7.95;;;2.92;;
60203;SDS011;46068;52.132;4.618;2023-07-29T06:35:00;9.98;;;3.53;;
60203;SDS011;46068;52.132;4.618;2023-07-29T06:37:27;10.68;;;2.90;;
60203;SDS011;46068;52.132;4.618;2023-07-29T06:39:53;8.30;;;2.83;;
60203;SDS011;46068;52.132;4.618;2023-07-29T06:42:19;5.78;;;2.72;;
60203;SDS011;46068;52.132;4.618;2023-07-29T06:44:45;8.75;;;2.80;;
60203;SDS011;46068;52.132;4.618;2023-07-29T06:47:12;6.18;;;2.80;;
60203;SDS011;46068;52.132;4.618;2023-07-29T06:49:39;9.90;;;2.85;;
60203;SDS011;46068;52.132;4.618;2023-07-29T06:52:06;9.40;;;3.10;;
60203;SDS011;46068;52.132;4.618;2023-07-29T06:54:32;6.05;;;2.45;;
60203;SDS011;46068;52.132;4.618;2023-07-29T06:56:58;7.97;;;3.00;;
60203;SDS011;46068;52.132;4.618;2023-07-29T06:59:25;8.75;;;2.75;;
60203;SDS011;46068;52.132;4.618;2023-07-29T07:01:51;6.78;;;2.10;;
60203;SDS011;46068;52.132;4.618;2023-07-29T07:04:17;10.38;;;2.20;;
60203;SDS011;46068;52.132;4.618;2023-07-29T07:06:45;7.97;;;2.00;;
60203;SDS011;46068;52.132;4.618;2023-07-29T07:09:11;7.13;;;2.17;;
60203;SDS011;46068;52.132;4.618;2023-07-29T07:11:38;5.47;;;1.70;;
60203;SDS011;46068;52.132;4.618;2023-07-29T07:14:04;7.82;;;2.10;;
60203;SDS011;46068;52.132;4.618;2023-07-29T07:16:30;9.77;;;2.22;;
60203;SDS011;46068;52.132;4.618;2023-07-29T07:18:57;9.25;;;2.15;;
60203;SDS011;46068;52.132;4.618;2023-07-29T07:21:23;9.52;;;2.00;;
60203;SDS011;46068;52.132;4.618;2023-07-29T07:23:51;7.82;;;2.00;;
60203;SDS011;46068;52.132;4.618;2023-07-29T07:26:17;7.10;;;1.23;;
60203;SDS011;46068;52.132;4.618;2023-07-29T07:28:43;4.25;;;1.30;;
60203;SDS011;46068;52.132;4.618;2023-07-29T07:31:09;5.95;;;1.58;;
60203;SDS011;46068;52.132;4.618;2023-07-29T07:33:36;5.22;;;1.60;;
60203;SDS011;46068;52.132;4.618;2023-07-29T07:36:02;8.68;;;1.30;;
60203;SDS011;46068;52.132;4.618;2023-07-29T07:38:28;5.50;;;1.02;;
60203;SDS011;46068;52.132;4.618;2023-07-29T07:40:56;5.03;;;1.08;;
60203;SDS011;46068;52.132;4.618;2023-07-29T07:43:22;5.68;;;1.00;;
60203;SDS011;46068;52.132;4.618;2023-07-29T07:45:49;2.72;;;0.88;;
60203;SDS011;46068;52.132;4.618;2023-07-29T07:48:15;3.72;;;1.13;;
60203;SDS011;46068;52.132;4.618;2023-07-29T07:50:42;4.82;;;1.10;;
60203;SDS011;46068;52.132;4.618;2023-07-29T07:53:08;3.63;;;1.15;;
60203;SDS011;46068;52.132;4.618;2023-07-29T07:55:35;4.35;;;1.20;;
60203;SDS011;46068;52.132;4.618;2023-07-29T07:58:02;4.93;;;1.23;;
60203;SDS011;46068;52.132;4.618;2023-07-29T08:00:29;5.55;;;1.30;;
60203;SDS011;46068;52.132;4.618;2023-07-29T08:02:56;6.03;;;1.40;;
60203;SDS011;46068;52.132;4.618;2023-07-29T08:05:22;3.58;;;0.98;;
60203;SDS011;46068;52.132;4.618;2023-07-29T08:07:48;4.78;;;1.20;;
60203;SDS011;46068;52.132;4.618;2023-07-29T08:10:15;4.55;;;1.20;;
60203;SDS011;46068;52.132;4.618;2023-07-29T08:12:41;3.17;;;1.13;;
60203;SDS011;46068;52.132;4.618;2023-07-29T08:15:09;7.00;;;1.30;;
60203;SDS011;46068;52.132;4.618;2023-07-29T08:17:35;6.97;;;1.50;;
60203;SDS011;46068;52.132;4.618;2023-07-29T08:20:01;5.38;;;1.40;;
60203;SDS011;46068;52.132;4.618;2023-07-29T08:22:28;5.57;;;1.30;;
60203;SDS011;46068;52.132;4.618;2023-07-29T08:24:54;5.18;;;1.63;;
60203;SDS011;46068;52.132;4.618;2023-07-29T08:27:20;2.85;;;1.20;;
60203;SDS011;46068;52.132;4.618;2023-07-29T08:29:46;5.70;;;1.25;;
60203;SDS011;46068;52.132;4.618;2023-07-29T08:32:14;11.25;;;2.08;;
60203;SDS011;46068;52.132;4.618;2023-07-29T08:34:40;7.25;;;1.80;;
60203;SDS011;46068;52.132;4.618;2023-07-29T08:37:06;6.47;;;1.50;;
60203;SDS011;46068;52.132;4.618;2023-07-29T08:39:33;6.32;;;1.73;;
60203;SDS011;46068;52.132;4.618;2023-07-29T08:42:00;9.00;;;1.95;;
60203;SDS011;46068;52.132;4.618;2023-07-29T08:44:35;4.65;;;1.35;;
60203;SDS011;46068;52.132;4.618;2023-07-29T08:47:02;9.82;;;1.80;;
60203;SDS011;46068;52.132;4.618;2023-07-29T08:49:30;2.97;;;1.50;;
60203;SDS011;46068;52.132;4.618;2023-07-29T08:51:57;5.85;;;1.48;;
60203;SDS011;46068;52.132;4.618;2023-07-29T08:54:23;4.18;;;1.50;;
60203;SDS011;46068;52.132;4.618;2023-07-29T08:56:50;5.78;;;1.10;;
60203;SDS011;46068;52.132;4.618;2023-07-29T08:59:16;5.93;;;1.58;;
60203;SDS011;46068;52.132;4.618;2023-07-29T09:01:42;3.38;;;0.95;;
60203;SDS011;46068;52.132;4.618;2023-07-29T09:04:09;3.35;;;1.40;;
60203;SDS011;46068;52.132;4.618;2023-07-29T09:06:37;3.05;;;1.08;;
60203;SDS011;46068;52.132;4.618;2023-07-29T09:09:04;3.72;;;1.35;;
60203;SDS011;46068;52.132;4.618;2023-07-29T09:11:32;3.92;;;1.17;;
60203;SDS011;46068;52.132;4.618;2023-07-29T09:13:58;5.22;;;1.90;;
60203;SDS011;46068;52.132;4.618;2023-07-29T09:16:25;4.47;;;1.10;;
60203;SDS011;46068;52.132;4.618;2023-07-29T09:18:51;5.68;;;1.33;;
60203;SDS011;46068;52.132;4.618;2023-07-29T09:21:18;4.55;;;1.52;;
60203;SDS011;46068;52.132;4.618;2023-07-29T09:23:49;6.15;;;1.50;;
60203;SDS011;46068;52.132;4.618;2023-07-29T09:26:18;4.55;;;1.58;;
60203;SDS011;46068;52.132;4.618;2023-07-29T09:28:50;4.43;;;1.40;;
60203;SDS011;46068;52.132;4.618;2023-07-29T09:31:18;4.93;;;1.50;;
60203;SDS011;46068;52.132;4.618;2023-07-29T09:33:45;3.95;;;1.52;;
60203;SDS011;46068;52.132;4.618;2023-07-29T09:36:11;3.08;;;1.50;;
60203;SDS011;46068;52.132;4.618;2023-07-29T09:38:38;6.75;;;2.10;;
60203;SDS011;46068;52.132;4.618;2023-07-29T09:41:05;5.60;;;1.67;;
60203;SDS011;46068;52.132;4.618;2023-07-29T09:43:32;6.30;;;1.77;;
60203;SDS011;46068;52.132;4.618;2023-07-29T09:45:59;5.35;;;1.60;;
60203;SDS011;46068;52.132;4.618;2023-07-29T09:48:26;5.95;;;1.90;;
60203;SDS011;46068;52.132;4.618;2023-07-29T09:50:53;6.03;;;1.92;;
60203;SDS011;46068;52.132;4.618;2023-07-29T09:53:20;4.47;;;2.10;;
60203;SDS011;46068;52.132;4.618;2023-07-29T09:55:46;4.93;;;1.92;;
60203;SDS011;46068;52.132;4.618;2023-07-29T09:58:14;8.38;;;2.15;;
60203;SDS011;46068;52.132;4.618;2023-07-29T10:00:45;7.72;;;2.50;;
60203;SDS011;46068;52.132;4.618;2023-07-29T10:03:11;7.10;;;2.42;;
60203;SDS011;46068;52.132;4.618;2023-07-29T10:05:38;7.22;;;2.03;;
60203;SDS011;46068;52.132;4.618;2023-07-29T10:08:06;8.73;;;2.20;;
60203;SDS011;46068;52.132;4.618;2023-07-29T10:10:32;6.05;;;1.83;;
60203;SDS011;46068;52.132;4.618;2023-07-29T10:12:59;3.67;;;1.73;;
60203;SDS011;46068;52.132;4.618;2023-07-29T10:15:28;8.40;;;1.70;;
60203;SDS011;46068;52.132;4.618;2023-07-29T10:17:55;3.25;;;1.63;;
60203;SDS011;46068;52.132;4.618;2023-07-29T10:20:22;4.15;;;1.73;;
60203;SDS011;46068;52.132;4.618;2023-07-29T10:22:48;6.82;;;1.90;;
60203;SDS011;46068;52.132;4.618;2023-07-29T10:25:16;6.32;;;1.80;;
60203;SDS011;46068;52.132;4.618;2023-07-29T10:27:43;3.53;;;1.63;;
60203;SDS011;46068;52.132;4.618;2023-07-29T10:30:10;4.22;;;1.48;;
60203;SDS011;46068;52.132;4.618;2023-07-29T10:32:38;3.97;;;1.40;;
60203;SDS011;46068;52.132;4.618;2023-07-29T10:35:05;7.20;;;2.03;;
60203;SDS011;46068;52.132;4.618;2023-07-29T10:37:31;4.40;;;1.35;;
60203;SDS011;46068;52.132;4.618;2023-07-29T10:39:58;3.53;;;1.10;;
60203;SDS011;46068;52.132;4.618;2023-07-29T10:42:24;2.88;;;0.90;;
60203;SDS011;46068;52.132;4.618;2023-07-29T10:44:51;4.93;;;1.10;;
60203;SDS011;46068;52.132;4.618;2023-07-29T10:47:19;3.38;;;0.82;;
60203;SDS011;46068;52.132;4.618;2023-07-29T10:49:47;2.17;;;1.10;;
60203;SDS011;46068;52.132;4.618;2023-07-29T10:52:13;3.92;;;0.93;;
60203;SDS011;46068;52.132;4.618;2023-07-29T10:54:44;3.55;;;1.10;;
60203;SDS011;46068;52.132;4.618;2023-07-29T10:57:13;2.63;;;0.80;;
60203;SDS011;46068;52.132;4.618;2023-07-29T10:59:40;1.10;;;0.80;;
60203;SDS011;46068;52.132;4.618;2023-07-29T11:02:15;1.65;;;0.68;;
60203;SDS011;46068;52.132;4.618;2023-07-29T11:04:47;1.40;;;0.70;;
60203;SDS011;46068;52.132;4.618;2023-07-29T11:07:26;1.45;;;0.57;;
60203;SDS011;46068;52.132;4.618;2023-07-29T11:10:02;1.50;;;0.50;;
60203;SDS011;46068;52.132;4.618;2023-07-29T11:12:42;2.45;;;0.75;;
60203;SDS011;46068;52.132;4.618;2023-07-29T11:17:56;1.35;;;0.60;;
60203;SDS011;46068;52.132;4.618;2023-07-29T11:20:24;1.20;;;0.60;;
60203;SDS011;46068;52.132;4.618;2023-07-29T11:22:51;1.65;;;0.70;;
60203;SDS011;46068;52.132;4.618;2023-07-29T11:25:17;1.25;;;0.63;;
60203;SDS011;46068;52.132;4.618;2023-07-29T11:27:44;1.77;;;0.50;;
60203;SDS011;46068;52.132;4.618;2023-07-29T11:30:11;1.38;;;0.70;;
60203;SDS011;46068;52.132;4.618;2023-07-29T11:32:38;3.03;;;0.80;;
60203;SDS011;46068;52.132;4.618;2023-07-29T11:35:05;1.48;;;0.70;;
60203;SDS011;46068;52.132;4.618;2023-07-29T11:37:34;1.27;;;0.70;;
60203;SDS011;46068;52.132;4.618;2023-07-29T11:40:00;2.47;;;0.90;;
60203;SDS011;46068;52.132;4.618;2023-07-29T11:42:27;1.58;;;0.98;;
60203;SDS011;46068;52.132;4.618;2023-07-29T11:44:55;2.88;;;1.10;;
60203;SDS011;46068;52.132;4.618;2023-07-29T11:47:22;1.67;;;0.90;;
60203;SDS011;46068;52.132;4.618;2023-07-29T11:49:48;1.55;;;0.90;;
60203;SDS011;46068;52.132;4.618;2023-07-29T11:52:14;5.55;;;1.20;;
60203;SDS011;46068;52.132;4.618;2023-07-29T11:54:45;3.33;;;0.88;;
60203;SDS011;46068;52.132;4.618;2023-07-29T11:57:12;1.52;;;1.10;;
60203;SDS011;46068;52.132;4.618;2023-07-29T11:59:39;2.17;;;1.00;;
60203;SDS011;46068;52.132;4.618;2023-07-29T12:02:07;2.60;;;1.10;;
60203;SDS011;46068;52.132;4.618;2023-07-29T12:04:34;3.10;;;1.13;;
60203;SDS011;46068;52.132;4.618;2023-07-29T12:07:01;2.80;;;0.93;;
60203;SDS011;46068;52.132;4.618;2023-07-29T12:09:27;2.53;;;0.85;;
60203;SDS011;46068;52.132;4.618;2023-07-29T12:11:55;6.28;;;1.17;;
60203;SDS011;46068;52.132;4.618;2023-07-29T12:14:21;3.83;;;1.10;;
60203;SDS011;46068;52.132;4.618;2023-07-29T12:16:48;5.20;;;1.30;;
60203;SDS011;46068;52.132;4.618;2023-07-29T12:19:14;3.20;;;0.98;;
60203;SDS011;46068;52.132;4.618;2023-07-29T12:21:42;2.67;;;1.15;;
60203;SDS011;46068;52.132;4.618;2023-07-29T12:24:09;5.28;;;1.25;;
60203;SDS011;46068;52.132;4.618;2023-07-29T12:26:35;4.30;;;1.20;;
60203;SDS011;46068;52.132;4.618;2023-07-29T12:29:11;5.35;;;1.30;;
60203;SDS011;46068;52.132;4.618;2023-07-29T12:31:38;7.35;;;1.60;;
60203;SDS011;46068;52.132;4.618;2023-07-29T12:34:04;3.45;;;1.30;;
60203;SDS011;46068;52.132;4.618;2023-07-29T12:36:40;4.07;;;1.38;;
60203;SDS011;46068;52.132;4.618;2023-07-29T12:39:06;4.00;;;1.50;;
60203;SDS011;46068;52.132;4.618;2023-07-29T12:41:41;3.88;;;1.50;;
60203;SDS011;46068;52.132;4.618;2023-07-29T12:44:07;4.78;;;1.10;;
60203;SDS011;46068;52.132;4.618;2023-07-29T12:46:35;1.92;;;0.98;;
60203;SDS011;46068;52.132;4.618;2023-07-29T12:49:01;2.47;;;0.90;;
60203;SDS011;46068;52.132;4.618;2023-07-29T12:51:27;2.70;;;1.00;;
60203;SDS011;46068;52.132;4.618;2023-07-29T12:53:54;4.93;;;0.82;;
60203;SDS011;46068;52.132;4.618;2023-07-29T12:56:20;2.03;;;1.10;;
60203;SDS011;46068;52.132;4.618;2023-07-29T12:58:46;2.95;;;0.90;;
60203;SDS011;46068;52.132;4.618;2023-07-29T13:01:13;4.30;;;1.13;;
60203;SDS011;46068;52.132;4.618;2023-07-29T13:03:44;4.15;;;1.13;;
60203;SDS011;46068;52.132;4.618;2023-07-29T13:06:10;5.00;;;1.10;;
60203;SDS011;46068;52.132;4.618;2023-07-29T13:08:36;2.58;;;0.75;;
60203;SDS011;46068;52.132;4.618;2023-07-29T13:11:03;1.90;;;0.98;;
60203;SDS011;46068;52.132;4.618;2023-07-29T13:13:29;2.30;;;0.95;;
60203;SDS011;46068;52.132;4.618;2023-07-29T13:15:56;1.67;;;0.60;;
60203;SDS011;46068;52.132;4.618;2023-07-29T13:18:22;3.25;;;0.90;;
60203;SDS011;46068;52.132;4.618;2023-07-29T13:20:50;2.47;;;0.80;;
60203;SDS011;46068;52.132;4.618;2023-07-29T13:23:16;2.83;;;0.60;;
60203;SDS011;46068;52.132;4.618;2023-07-29T13:25:42;2.97;;;0.73;;
60203;SDS011;46068;52.132;4.618;2023-07-29T13:28:09;3.20;;;0.70;;
60203;SDS011;46068;52.132;4.618;2023-07-29T13:30:36;4.38;;;0.95;;
60203;SDS011;46068;52.132;4.618;2023-07-29T13:33:03;3.85;;;0.90;;
60203;SDS011;46068;52.132;4.618;2023-07-29T13:35:30;3.08;;;1.13;;
60203;SDS011;46068;52.132;4.618;2023-07-29T13:37:57;3.85;;;1.00;;
60203;SDS011;46068;52.132;4.618;2023-07-29T13:40:24;2.03;;;0.80;;
60203;SDS011;46068;52.132;4.618;2023-07-29T13:42:50;2.80;;;0.80;;
60203;SDS011;46068;52.132;4.618;2023-07-29T13:45:16;3.40;;;0.82;;
60203;SDS011;46068;52.132;4.618;2023-07-29T13:47:43;4.50;;;0.93;;
60203;SDS011;46068;52.132;4.618;2023-07-29T13:50:09;1.88;;;0.70;;
60203;SDS011;46068;52.132;4.618;2023-07-29T13:52:37;1.15;;;0.70;;
60203;SDS011;46068;52.132;4.618;2023-07-29T13:55:05;5.15;;;0.73;;
60203;SDS011;46068;52.132;4.618;2023-07-29T13:57:31;2.17;;;0.57;;
60203;SDS011;46068;52.132;4.618;2023-07-29T13:59:58;5.20;;;0.90;;
60203;SDS011;46068;52.132;4.618;2023-07-29T14:02:24;4.10;;;0.85;;
60203;SDS011;46068;52.132;4.618;2023-07-29T14:04:51;2.08;;;0.93;;
60203;SDS011;46068;52.132;4.618;2023-07-29T14:07:17;4.75;;;1.00;;
60203;SDS011;46068;52.132;4.618;2023-07-29T14:09:44;2.97;;;1.05;;
60203;SDS011;46068;52.132;4.618;2023-07-29T14:12:11;3.13;;;1.10;;
60203;SDS011;46068;52.132;4.618;2023-07-29T14:14:39;3.90;;;1.02;;
60203;SDS011;46068;52.132;4.618;2023-07-29T14:17:06;2.90;;;0.90;;
60203;SDS011;46068;52.132;4.618;2023-07-29T14:19:33;3.58;;;1.10;;
60203;SDS011;46068;52.132;4.618;2023-07-29T14:22:00;2.60;;;0.80;;
60203;SDS011;46068;52.132;4.618;2023-07-29T14:24:26;1.85;;;0.93;;
60203;SDS011;46068;52.132;4.618;2023-07-29T14:26:52;3.00;;;1.30;;
60203;SDS011;46068;52.132;4.618;2023-07-29T14:29:20;3.28;;;1.05;;
60203;SDS011;46068;52.132;4.618;2023-07-29T14:31:46;2.42;;;0.90;;
60203;SDS011;46068;52.132;4.618;2023-07-29T14:34:12;2.97;;;0.90;;
60203;SDS011;46068;52.132;4.618;2023-07-29T14:36:39;4.50;;;1.20;;
60203;SDS011;46068;52.132;4.618;2023-07-29T14:39:05;2.97;;;1.08;;
60203;SDS011;46068;52.132;4.618;2023-07-29T14:41:31;2.05;;;0.80;;
60203;SDS011;46068;52.132;4.618;2023-07-29T14:43:58;2.92;;;1.15;;
60203;SDS011;46068;52.132;4.618;2023-07-29T14:46:25;4.18;;;1.10;;